釧路 の空港の天気 - METARとTAF

釧路空港 ( RJCK / KUH ) - 北海道釧路市
飛行場実況気象(Metar)
観測時間06/21 20:40 JST (06/21 11:40 UTC)
風向・風速南南西 3m/s
視程300m
天気現象
全天を覆う雲 鉛直視程 30m
気温11℃
湿度100%
気圧999hPa
METARRJCK 211140Z 20005KT 0300 R35/0500N FG VV001 11/11 Q0999 RMK A2952
過去の天気等 Google飛行場航空写真 Wunderground天気予報

過去48時間のMETAR

飛行場予報(TAF)
発表時間: 6/21 20:10 JST (6/21 11:10 UTC)
予報対象時間: 21日21時 JST ~ 23日3時 JST
風向・風速南南西 3m/s
視程7000m
少しの雲 雲底高度 90m
全天の8割程度の雲 雲底高度 180m
21日21時 JST ~ 22日3時 JST に一時的に
視程500m
天気現象弱いしゅう雨 霧
全天を覆う雲 鉛直視程 30m
22日3時 JST ~ 22日7時 JST に一時的に
視程700m
天気現象
全天を覆う雲 鉛直視程 30m
22日7時 JST ~ 22日9時 JST に徐々に
少しの雲 雲底高度 760m
全天の4割程度の雲 雲底高度 1520m
22日12時 JST ~ 22日18時 JST に一時的に
風向・風速西南西 8m/s 瞬間風速 14m/s
TAF RJCK 211110Z 2112/2218 21006KT 7000 FEW003 BKN006
TEMPO 2112/2118 0500 -SHRA FG VV001
TEMPO 2118/2122 0700 FG VV001
BECMG 2122/2200 FEW025 SCT050
TEMPO 2203/2209 24015G28KT
日本の空港のMETAR・TAFへのリンク

RJTT 東京国際空港
RJAA 新東京国際空港
RJBB 関西国際空港
RJOO 大阪空港
RJGG 中部国際空港
RJCC 新千歳空港
RJFF 福岡空港
ROAH 那覇空港


RJEC 旭川空港
RJCH 函館空港
RJCK 釧路空港
RJCM 女満別空港
RJCB 帯広空港
RJSA 青森空港
RJSS 仙台空港
RJSK 秋田空港
RJSF 福島空港
RJAH 茨城空港
RJSN 新潟空港
RJNT 富山空港
RJNK 小松飛行場
RJNS 静岡空港
RJOH 美保飛行場
RJOC 出雲空港
RJOB 岡山空港
RJOA 広島空港
RJOI 岩国飛行場
RJOT 高松空港
RJOM 松山空港
RJOK 高知空港
RJFR 北九州空港
RJFT 熊本空港
RJFU 長崎空港
RJFS 佐賀空港
RJFO 大分空港
RJFM 宮崎空港
RJFK 鹿児島空港
ROIG 石垣島空港
RJTY 横田飛行場
ROTM 普天間飛行場
RODN 嘉手納飛行場